createdAt,value
2023-05-08T00:01:25.466Z,3.42
2023-05-08T00:03:52.895Z,3.78
2023-05-08T00:06:19.670Z,3.28
2023-05-08T00:08:46.318Z,3.42
2023-05-08T00:11:13.026Z,4.07
2023-05-08T00:13:41.339Z,3.85
2023-05-08T00:16:12.900Z,3.13
2023-05-08T00:18:40.180Z,3.03
2023-05-08T00:21:06.867Z,3.45
2023-05-08T00:23:34.154Z,3.55
2023-05-08T00:26:00.910Z,3.22
2023-05-08T00:28:27.643Z,4.10
2023-05-08T00:30:54.365Z,2.90
2023-05-08T00:33:21.083Z,2.65
2023-05-08T00:35:48.015Z,3.38
2023-05-08T00:38:14.644Z,3.72
2023-05-08T00:40:41.643Z,3.55
2023-05-08T00:43:08.192Z,3.88
2023-05-08T00:45:38.020Z,3.88
2023-05-08T00:48:05.126Z,3.40
2023-05-08T00:50:32.731Z,4.10
2023-05-08T00:53:02.865Z,4.72
2023-05-08T00:55:30.239Z,4.75
2023-05-08T00:57:58.087Z,3.83
2023-05-08T01:00:25.062Z,4.70
2023-05-08T01:02:52.077Z,3.22
2023-05-08T01:05:18.827Z,3.78
2023-05-08T01:07:45.717Z,3.95
2023-05-08T01:10:12.655Z,4.82
2023-05-08T01:12:58.234Z,5.13
2023-05-08T01:15:36.352Z,4.22
2023-05-08T01:18:18.931Z,5.47
2023-05-08T01:20:49.129Z,5.72
2023-05-08T01:23:34.678Z,6.15
2023-05-08T01:26:27.647Z,4.82
2023-05-08T01:29:03.054Z,5.18
2023-05-08T01:32:07.561Z,5.60
2023-05-08T01:34:38.827Z,4.60
2023-05-08T01:37:14.538Z,4.20
2023-05-08T01:39:51.135Z,5.22
2023-05-08T01:42:26.517Z,6.00
2023-05-08T01:45:03.432Z,5.15
2023-05-08T01:47:33.216Z,5.57
2023-05-08T01:50:07.305Z,5.32
2023-05-08T01:52:41.018Z,4.88
2023-05-08T01:55:14.209Z,4.97
2023-05-08T01:57:53.343Z,5.65
2023-05-08T02:00:22.934Z,4.30
2023-05-08T02:02:51.914Z,4.10
2023-05-08T02:05:20.980Z,4.43
2023-05-08T02:07:50.489Z,4.55
2023-05-08T02:10:18.511Z,5.00
2023-05-08T02:12:45.872Z,3.88
2023-05-08T02:15:16.186Z,4.07
2023-05-08T02:17:46.241Z,4.70
2023-05-08T02:20:15.328Z,5.25
2023-05-08T02:22:48.854Z,5.28
2023-05-08T02:25:17.227Z,4.70
2023-05-08T02:27:49.521Z,5.53
2023-05-08T02:30:19.339Z,5.82
2023-05-08T02:32:48.078Z,6.05
2023-05-08T02:35:19.933Z,5.75
2023-05-08T02:37:51.750Z,5.93
2023-05-08T02:40:20.583Z,6.65
2023-05-08T02:42:47.387Z,6.07
2023-05-08T02:45:14.605Z,6.97
2023-05-08T02:48:05.277Z,7.47
2023-05-08T02:50:40.405Z,6.05
2023-05-08T02:53:12.842Z,7.43
2023-05-08T02:56:00.427Z,7.70
2023-05-08T02:58:40.497Z,7.55
2023-05-08T03:01:48.342Z,7.85
2023-05-08T03:04:24.508Z,5.88
2023-05-08T03:06:54.919Z,5.60
2023-05-08T03:09:26.295Z,7.10
2023-05-08T03:12:00.917Z,6.05
2023-05-08T03:14:31.655Z,7.47
2023-05-08T03:17:01.037Z,8.20
2023-05-08T03:19:33.115Z,9.30
2023-05-08T03:22:01.935Z,8.85
2023-05-08T03:24:31.616Z,7.40
2023-05-08T03:26:59.294Z,6.40
2023-05-08T03:29:27.254Z,5.85
2023-05-08T03:31:54.806Z,6.35
2023-05-08T03:34:23.490Z,5.40
2023-05-08T03:39:17.688Z,5.40
2023-05-08T03:41:45.558Z,5.68
2023-05-08T03:44:13.368Z,5.97
2023-05-08T03:46:42.486Z,6.00
2023-05-08T03:49:12.474Z,6.38
2023-05-08T03:51:40.380Z,6.60
2023-05-08T03:54:07.162Z,8.02
2023-05-08T03:56:34.397Z,9.85
2023-05-08T03:59:17.810Z,10.43
2023-05-08T04:01:59.260Z,9.95
2023-05-08T04:04:42.050Z,8.20
2023-05-08T04:07:32.060Z,8.45
2023-05-08T04:10:13.789Z,8.55
2023-05-08T04:12:51.976Z,7.50
2023-05-08T04:15:24.486Z,6.32
2023-05-08T04:17:55.542Z,6.95
2023-05-08T04:20:26.036Z,5.18
2023-05-08T04:22:54.676Z,6.10
2023-05-08T04:27:51.360Z,6.32
2023-05-08T04:30:18.544Z,6.78
2023-05-08T04:32:46.963Z,6.55
2023-05-08T04:37:43.609Z,6.65
2023-05-08T04:40:10.945Z,6.25
2023-05-08T04:42:39.873Z,4.70
2023-05-08T04:45:10.903Z,6.40
2023-05-08T04:47:37.780Z,5.13
2023-05-08T04:50:06.022Z,5.70
2023-05-08T04:52:33.819Z,5.50
2023-05-08T04:55:00.562Z,5.05
2023-05-08T04:57:27.828Z,5.15
2023-05-08T04:59:54.999Z,6.93
2023-05-08T05:02:21.632Z,5.32
2023-05-08T05:04:49.773Z,5.22
2023-05-08T05:07:17.431Z,4.60
2023-05-08T05:09:44.414Z,5.07
2023-05-08T05:12:13.494Z,5.80
2023-05-08T05:14:41.517Z,4.95
2023-05-08T05:17:09.405Z,4.85
2023-05-08T05:19:37.059Z,5.40
2023-05-08T05:22:03.862Z,5.25
2023-05-08T05:24:31.584Z,5.43
2023-05-08T05:26:58.639Z,4.28
2023-05-08T05:29:25.394Z,4.88
2023-05-08T05:31:52.167Z,4.93
2023-05-08T05:34:18.858Z,4.20
2023-05-08T05:36:45.428Z,4.03
2023-05-08T05:39:12.022Z,4.30
2023-05-08T05:41:38.728Z,4.30
2023-05-08T05:44:05.778Z,3.70
2023-05-08T05:46:32.745Z,4.40
2023-05-08T05:48:59.631Z,4.53
2023-05-08T05:51:30.275Z,4.60
2023-05-08T05:53:57.280Z,3.90
2023-05-08T05:56:25.021Z,4.28
2023-05-08T05:58:51.835Z,5.20
2023-05-08T06:01:18.984Z,4.40
2023-05-08T06:03:46.060Z,5.10
2023-05-08T06:06:13.266Z,3.65
2023-05-08T06:08:39.860Z,4.30
2023-05-08T06:11:06.621Z,4.63
2023-05-08T06:13:33.371Z,4.45
2023-05-08T06:16:00.168Z,5.20
2023-05-08T06:18:26.830Z,3.13
2023-05-08T06:20:59.995Z,2.72
2023-05-08T06:23:27.158Z,4.85
2023-05-08T06:25:54.585Z,3.85
2023-05-08T06:28:22.678Z,4.30
2023-05-08T06:30:49.506Z,3.75
2023-05-08T06:33:16.234Z,3.58
2023-05-08T06:35:49.213Z,4.38
2023-05-08T06:38:16.401Z,3.80
2023-05-08T06:40:47.941Z,3.80
2023-05-08T06:43:14.617Z,4.85
2023-05-08T06:45:43.931Z,3.15
2023-05-08T06:48:11.580Z,3.80
2023-05-08T06:50:39.471Z,4.93
2023-05-08T06:53:07.236Z,4.05
2023-05-08T06:55:36.119Z,3.85
2023-05-08T06:58:02.858Z,3.22
2023-05-08T07:00:29.600Z,3.97
2023-05-08T07:02:57.390Z,3.97
2023-05-08T07:05:24.114Z,3.88
2023-05-08T07:07:50.734Z,4.05
2023-05-08T07:10:19.987Z,3.78
2023-05-08T07:12:46.870Z,3.85
2023-05-08T07:15:25.214Z,4.00
2023-05-08T07:17:53.546Z,4.82
2023-05-08T07:20:21.656Z,4.65
2023-05-08T07:27:42.538Z,3.70
2023-05-08T07:30:09.621Z,3.97
2023-05-08T07:32:36.402Z,4.22
2023-05-08T07:35:03.791Z,3.60
2023-05-08T07:37:33.645Z,3.75
2023-05-08T07:40:00.253Z,3.60
2023-05-08T07:42:26.967Z,2.50
2023-05-08T07:44:55.208Z,2.70
2023-05-08T07:47:23.163Z,2.90
2023-05-08T07:49:49.875Z,3.40
2023-05-08T07:52:16.827Z,3.28
2023-05-08T07:54:44.142Z,3.10
2023-05-08T07:57:11.258Z,2.88
2023-05-08T07:59:38.055Z,3.22
2023-05-08T08:02:07.504Z,3.25
2023-05-08T08:04:36.786Z,3.00
2023-05-08T08:07:04.759Z,2.33
2023-05-08T08:09:32.352Z,3.72
2023-05-08T08:11:59.044Z,3.35
2023-05-08T08:14:25.623Z,2.78
2023-05-08T08:16:52.486Z,2.72
2023-05-08T08:19:19.252Z,2.17
2023-05-08T08:21:46.421Z,2.97
2023-05-08T08:24:13.835Z,2.22
2023-05-08T08:26:40.521Z,1.83
2023-05-08T08:29:07.166Z,2.53
2023-05-08T08:31:34.012Z,2.65
2023-05-08T08:34:04.656Z,2.85
2023-05-08T08:36:32.622Z,3.17
2023-05-08T08:39:00.292Z,2.50
2023-05-08T08:41:28.115Z,2.25
2023-05-08T08:43:57.756Z,3.00
2023-05-08T08:46:33.309Z,3.40
2023-05-08T08:49:03.785Z,2.55
2023-05-08T08:51:51.989Z,3.17
2023-05-08T08:54:23.890Z,2.38
2023-05-08T08:56:52.099Z,2.20
2023-05-08T08:59:19.333Z,2.65
2023-05-08T09:01:50.459Z,2.95
2023-05-08T09:04:17.408Z,3.22
2023-05-08T09:06:46.155Z,2.22
2023-05-08T09:09:16.534Z,2.42
2023-05-08T09:11:46.305Z,2.42
2023-05-08T09:14:13.259Z,2.40
2023-05-08T09:16:40.224Z,2.92
2023-05-08T09:19:08.105Z,3.15
2023-05-08T09:21:34.767Z,1.90
2023-05-08T09:24:04.936Z,2.25
2023-05-08T09:26:39.395Z,3.08
2023-05-08T09:29:22.757Z,3.03
2023-05-08T09:31:51.666Z,2.13
2023-05-08T09:34:28.101Z,1.58
2023-05-08T09:37:09.940Z,5.35
2023-05-08T09:39:36.727Z,2.08
2023-05-08T09:42:05.121Z,1.95
2023-05-08T09:44:51.922Z,2.92
2023-05-08T09:47:22.095Z,1.90
2023-05-08T09:50:05.159Z,1.95
2023-05-08T09:52:33.219Z,2.10
2023-05-08T09:57:30.404Z,2.13
2023-05-08T10:00:14.218Z,1.02
2023-05-08T10:02:54.104Z,1.85
2023-05-08T10:05:24.955Z,4.80
2023-05-08T10:07:51.802Z,1.63
2023-05-08T10:10:28.881Z,1.90
2023-05-08T10:12:57.074Z,1.85
2023-05-08T10:15:27.443Z,2.83
2023-05-08T10:18:03.327Z,3.17
2023-05-08T10:20:31.765Z,2.63
2023-05-08T10:23:01.185Z,2.03
2023-05-08T10:25:33.196Z,2.25
2023-05-08T10:28:10.733Z,2.05
2023-05-08T10:30:43.259Z,2.25
2023-05-08T10:33:14.845Z,2.33
2023-05-08T10:35:43.691Z,2.63
2023-05-08T10:38:11.783Z,1.75
2023-05-08T10:43:07.385Z,1.48
2023-05-08T10:45:34.978Z,2.13
2023-05-08T10:48:07.717Z,2.22
2023-05-08T10:51:08.373Z,2.35
2023-05-08T10:53:44.197Z,2.88
2023-05-08T10:56:11.954Z,1.88
2023-05-08T10:58:40.417Z,1.73
2023-05-08T11:01:07.957Z,2.10
2023-05-08T11:03:50.823Z,1.40
2023-05-08T11:06:38.273Z,1.75
2023-05-08T11:09:05.968Z,1.27
2023-05-08T11:11:39.389Z,2.08
2023-05-08T11:14:07.235Z,2.90
2023-05-08T11:16:59.981Z,2.33
2023-05-08T11:19:27.955Z,2.00
2023-05-08T11:22:27.078Z,2.15
2023-05-08T11:25:40.263Z,1.77
2023-05-08T11:28:06.956Z,1.63
2023-05-08T11:30:34.702Z,1.80
2023-05-08T11:33:05.522Z,2.67
2023-05-08T11:36:06.149Z,2.90
2023-05-08T11:38:36.222Z,3.03
2023-05-08T11:41:06.816Z,2.13
2023-05-08T11:43:33.487Z,1.73
2023-05-08T11:46:04.307Z,1.80
2023-05-08T11:48:32.514Z,2.30
2023-05-08T11:51:03.355Z,2.03
2023-05-08T11:53:31.404Z,2.20
2023-05-08T11:58:26.952Z,1.38
2023-05-08T12:00:54.779Z,1.63
2023-05-08T12:03:23.237Z,1.60
2023-05-08T12:05:50.714Z,1.63
2023-05-08T12:08:18.301Z,1.38
2023-05-08T12:10:58.284Z,1.80
2023-05-08T12:13:31.158Z,1.67
2023-05-08T12:16:00.440Z,1.33
2023-05-08T12:18:28.844Z,2.13
2023-05-08T12:21:00.626Z,1.58
2023-05-08T12:23:32.239Z,2.83
2023-05-08T12:26:00.563Z,1.65
2023-05-08T12:28:28.825Z,1.92
2023-05-08T12:30:56.206Z,1.80
2023-05-08T12:33:23.523Z,2.00
2023-05-08T12:35:52.242Z,1.48
2023-05-08T12:38:18.892Z,1.73
2023-05-08T12:40:53.087Z,2.05
2023-05-08T12:43:19.780Z,1.95
2023-05-08T12:45:51.933Z,1.67
2023-05-08T12:48:19.334Z,2.30
2023-05-08T12:50:46.379Z,2.47
2023-05-08T12:53:15.254Z,1.85
2023-05-08T12:55:54.054Z,2.20
2023-05-08T12:58:25.271Z,1.80
2023-05-08T13:00:54.731Z,1.75
2023-05-08T13:03:26.537Z,2.05
2023-05-08T13:05:55.580Z,2.58
2023-05-08T13:08:30.938Z,2.38
2023-05-08T13:10:57.628Z,2.38
2023-05-08T13:13:27.620Z,2.13
2023-05-08T13:15:55.488Z,2.08
2023-05-08T13:18:25.529Z,2.22
2023-05-08T13:20:52.284Z,2.33
2023-05-08T13:23:19.167Z,1.35
2023-05-08T13:25:47.453Z,1.98
2023-05-08T13:28:17.260Z,1.67
2023-05-08T13:30:44.497Z,1.58
2023-05-08T13:33:11.157Z,2.13
2023-05-08T13:35:37.921Z,2.08
2023-05-08T13:38:04.536Z,1.65
2023-05-08T13:40:31.411Z,1.77
2023-05-08T13:42:59.087Z,1.85
2023-05-08T13:45:28.221Z,2.75
2023-05-08T13:47:55.138Z,2.35
2023-05-08T13:50:22.467Z,2.00
2023-05-08T13:52:52.307Z,2.20
2023-05-08T13:55:22.876Z,2.75
2023-05-08T13:57:50.025Z,2.10
2023-05-08T14:00:17.406Z,2.00
2023-05-08T14:02:48.316Z,1.67
2023-05-08T14:05:17.362Z,2.15
2023-05-08T14:10:14.043Z,1.52
2023-05-08T14:12:41.238Z,2.08
2023-05-08T14:15:08.678Z,2.22
2023-05-08T14:17:35.507Z,2.70
2023-05-08T14:20:02.363Z,1.75
2023-05-08T14:22:29.982Z,1.73
2023-05-08T14:24:56.560Z,2.28
2023-05-08T14:27:23.340Z,1.70
2023-05-08T14:29:50.079Z,1.83
2023-05-08T14:32:16.642Z,1.55
2023-05-08T14:34:44.286Z,2.05
2023-05-08T14:37:15.136Z,2.17
2023-05-08T14:39:41.736Z,1.38
2023-05-08T14:44:38.127Z,2.30
2023-05-08T14:47:05.837Z,1.85
2023-05-08T14:52:02.563Z,1.88
2023-05-08T14:54:29.274Z,2.20
2023-05-08T14:56:55.988Z,1.58
2023-05-08T14:59:22.662Z,2.75
2023-05-08T15:01:49.319Z,2.80
2023-05-08T15:04:17.692Z,2.05
2023-05-08T15:06:45.819Z,2.92
2023-05-08T15:09:12.536Z,2.13
2023-05-08T15:11:39.438Z,2.03
2023-05-08T15:14:06.205Z,1.98
2023-05-08T15:16:32.963Z,1.55
2023-05-08T15:18:59.671Z,1.63
2023-05-08T15:21:26.873Z,1.58
2023-05-08T15:23:55.440Z,2.17
2023-05-08T15:26:22.734Z,2.05
2023-05-08T15:28:49.555Z,3.53
2023-05-08T15:31:16.444Z,1.38
2023-05-08T15:33:45.079Z,2.28
2023-05-08T15:36:15.547Z,2.08
2023-05-08T15:38:46.116Z,1.90
2023-05-08T15:41:15.448Z,1.60
2023-05-08T15:43:45.432Z,1.65
2023-05-08T15:46:12.309Z,1.83
2023-05-08T15:48:40.096Z,1.98
2023-05-08T15:51:07.166Z,2.22
2023-05-08T15:53:34.782Z,2.15
2023-05-08T15:56:01.392Z,1.90
2023-05-08T15:58:28.076Z,1.27
2023-05-08T16:00:54.779Z,1.77
2023-05-08T16:03:21.709Z,1.63
2023-05-08T16:05:48.535Z,1.90
2023-05-08T16:08:16.408Z,2.10
2023-05-08T16:13:12.046Z,1.42
2023-05-08T16:15:38.856Z,1.33
2023-05-08T16:18:06.279Z,2.00
2023-05-08T16:20:34.322Z,1.90
2023-05-08T16:23:02.723Z,2.10
2023-05-08T16:25:29.432Z,2.00
2023-05-08T16:27:56.328Z,1.80
2023-05-08T16:30:22.994Z,1.73
2023-05-08T16:32:49.605Z,2.05
2023-05-08T16:35:16.554Z,1.42
2023-05-08T16:37:45.360Z,1.80
2023-05-08T16:40:12.341Z,1.85
2023-05-08T16:42:39.026Z,1.33
2023-05-08T16:45:06.760Z,1.58
2023-05-08T16:47:34.296Z,1.45
2023-05-08T16:50:01.220Z,2.40
2023-05-08T16:52:28.551Z,2.45
2023-05-08T16:54:55.225Z,1.40
2023-05-08T16:57:21.980Z,1.58
2023-05-08T16:59:48.578Z,1.15
2023-05-08T17:02:19.090Z,1.73
2023-05-08T17:04:47.505Z,2.75
2023-05-08T17:07:15.947Z,2.13
2023-05-08T17:09:49.213Z,2.38
2023-05-08T17:12:15.939Z,1.83
2023-05-08T17:14:42.755Z,1.75
2023-05-08T17:17:11.325Z,2.08
2023-05-08T17:19:37.957Z,2.65
2023-05-08T17:22:04.802Z,1.65
2023-05-08T17:24:32.434Z,1.95
2023-05-08T17:26:59.466Z,1.63
2023-05-08T17:29:26.167Z,1.90
2023-05-08T17:31:53.869Z,1.30
2023-05-08T17:34:22.713Z,1.83
2023-05-08T17:36:49.633Z,1.75
2023-05-08T17:39:19.785Z,1.45
2023-05-08T17:41:46.936Z,1.55
2023-05-08T17:44:13.635Z,2.22
2023-05-08T17:46:40.340Z,1.55
2023-05-08T17:49:08.155Z,2.00
2023-05-08T17:51:34.866Z,1.67
2023-05-08T17:54:01.540Z,1.83
2023-05-08T17:56:29.019Z,1.30
2023-05-08T17:58:57.133Z,1.58
2023-05-08T18:01:24.851Z,2.83
2023-05-08T18:03:53.541Z,1.58
2023-05-08T18:06:20.436Z,1.13
2023-05-08T18:08:47.771Z,1.67
2023-05-08T18:11:24.477Z,1.08
2023-05-08T18:13:53.246Z,1.98
2023-05-08T18:16:21.208Z,1.75
2023-05-08T18:18:49.575Z,1.63
2023-05-08T18:21:16.210Z,1.73
2023-05-08T18:23:45.793Z,1.50
2023-05-08T18:26:16.335Z,2.47
2023-05-08T18:28:43.903Z,2.40
2023-05-08T18:31:11.754Z,1.75
2023-05-08T18:33:38.440Z,1.13
2023-05-08T18:36:07.018Z,1.25
2023-05-08T18:38:34.584Z,2.08
2023-05-08T18:41:02.769Z,1.50
2023-05-08T18:43:29.422Z,1.58
2023-05-08T18:45:56.183Z,1.27
2023-05-08T18:48:22.835Z,1.73
2023-05-08T18:50:49.406Z,1.90
2023-05-08T18:53:16.087Z,1.42
2023-05-08T18:55:42.755Z,1.73
2023-05-08T18:58:09.574Z,1.63
2023-05-08T19:00:36.471Z,0.80
2023-05-08T19:03:03.384Z,1.58
2023-05-08T19:05:30.078Z,1.27
2023-05-08T19:07:56.676Z,1.13
2023-05-08T19:10:23.404Z,1.33
2023-05-08T19:12:50.809Z,1.20
2023-05-08T19:15:17.625Z,1.48
2023-05-08T19:17:45.342Z,1.73
2023-05-08T19:20:13.103Z,1.85
2023-05-08T19:22:40.058Z,1.50
2023-05-08T19:25:07.022Z,1.88
2023-05-08T19:27:33.674Z,1.70
2023-05-08T19:30:00.303Z,1.45
2023-05-08T19:32:27.720Z,1.88
2023-05-08T19:34:58.048Z,2.03
2023-05-08T19:37:25.149Z,1.25
2023-05-08T19:39:51.893Z,1.38
2023-05-08T19:42:18.480Z,1.40
2023-05-08T19:44:45.244Z,1.50
2023-05-08T19:47:15.232Z,1.83
2023-05-08T19:49:41.832Z,1.30
2023-05-08T19:52:08.626Z,1.67
2023-05-08T19:54:35.340Z,2.38
2023-05-08T19:57:02.139Z,1.73
2023-05-08T19:59:28.835Z,1.55
2023-05-08T20:01:55.588Z,2.13
2023-05-08T20:04:22.318Z,1.70
2023-05-08T20:06:48.929Z,1.38
2023-05-08T20:09:15.648Z,1.55
2023-05-08T20:11:42.304Z,2.00
2023-05-08T20:14:08.905Z,1.60
2023-05-08T20:16:35.711Z,1.60
2023-05-08T20:19:02.290Z,1.67
2023-05-08T20:21:32.475Z,1.88
2023-05-08T20:24:02.429Z,2.58
2023-05-08T20:26:29.615Z,1.40
2023-05-08T20:28:56.978Z,2.47
2023-05-08T20:31:25.780Z,1.55
2023-05-08T20:33:52.644Z,2.05
2023-05-08T20:36:19.500Z,1.80
2023-05-08T20:38:48.252Z,2.08
2023-05-08T20:41:15.218Z,1.60
2023-05-08T20:43:41.929Z,1.83
2023-05-08T20:46:08.685Z,2.38
2023-05-08T20:48:36.741Z,1.85
2023-05-08T20:51:03.389Z,1.92
2023-05-08T20:53:30.666Z,1.45
2023-05-08T20:56:01.790Z,1.92
2023-05-08T20:58:28.548Z,1.63
2023-05-08T21:00:55.419Z,2.42
2023-05-08T21:03:22.559Z,2.55
2023-05-08T21:05:49.387Z,1.80
2023-05-08T21:08:16.123Z,2.47
2023-05-08T21:10:42.845Z,1.92
2023-05-08T21:13:09.914Z,2.17
2023-05-08T21:15:36.625Z,1.98
2023-05-08T21:18:03.358Z,2.35
2023-05-08T21:20:32.523Z,1.40
2023-05-08T21:22:59.144Z,1.92
2023-05-08T21:25:25.908Z,1.88
2023-05-08T21:27:55.178Z,1.52
2023-05-08T21:30:22.022Z,1.50
2023-05-08T21:32:48.725Z,2.35
2023-05-08T21:35:15.895Z,2.28
2023-05-08T21:37:43.059Z,1.83
2023-05-08T21:40:10.328Z,2.13
2023-05-08T21:42:39.286Z,2.00
2023-05-08T21:45:06.391Z,2.30
2023-05-08T21:47:33.082Z,2.28
2023-05-08T21:49:59.711Z,1.88
2023-05-08T21:52:26.643Z,2.35
2023-05-08T21:54:53.224Z,2.83
2023-05-08T21:57:19.900Z,2.08
2023-05-08T21:59:46.832Z,1.80
2023-05-08T22:02:15.798Z,1.65
2023-05-08T22:04:43.170Z,2.35
2023-05-08T22:07:09.817Z,1.98
2023-05-08T22:09:36.477Z,2.15
2023-05-08T22:12:03.085Z,1.70
2023-05-08T22:14:30.783Z,1.85
2023-05-08T22:16:57.365Z,2.15
2023-05-08T22:19:23.981Z,2.17
2023-05-08T22:21:50.572Z,2.33
2023-05-08T22:24:19.085Z,2.53
2023-05-08T22:26:46.036Z,1.88
2023-05-08T22:29:12.599Z,2.33
2023-05-08T22:31:39.310Z,2.50
2023-05-08T22:34:06.058Z,2.28
2023-05-08T22:36:32.724Z,2.22
2023-05-08T22:39:00.977Z,2.42
2023-05-08T22:41:30.167Z,3.28
2023-05-08T22:43:56.903Z,2.00
2023-05-08T22:46:24.423Z,2.28
2023-05-08T22:48:52.796Z,3.17
2023-05-08T22:51:19.492Z,2.47
2023-05-08T22:53:46.466Z,2.85
2023-05-08T22:56:13.538Z,2.50
2023-05-08T22:58:40.165Z,2.38
2023-05-08T23:01:06.848Z,2.15
2023-05-08T23:03:33.557Z,1.98
2023-05-08T23:06:00.120Z,2.60
2023-05-08T23:08:26.687Z,2.83
2023-05-08T23:10:53.344Z,2.17
2023-05-08T23:13:20.001Z,2.97
2023-05-08T23:15:46.627Z,2.35
2023-05-08T23:18:13.663Z,2.08
2023-05-08T23:20:40.284Z,3.10
2023-05-08T23:23:07.383Z,2.97
2023-05-08T23:25:34.001Z,4.45
2023-05-08T23:28:00.647Z,3.65
2023-05-08T23:30:27.335Z,2.92
2023-05-08T23:32:54.038Z,3.13
2023-05-08T23:35:20.787Z,3.25
2023-05-08T23:37:47.410Z,2.65
2023-05-08T23:40:17.495Z,3.20
2023-05-08T23:42:45.083Z,2.97
2023-05-08T23:45:12.215Z,3.03
2023-05-08T23:47:39.284Z,2.40
2023-05-08T23:50:08.513Z,2.63
2023-05-08T23:52:35.237Z,2.50
2023-05-08T23:55:03.002Z,3.25
2023-05-08T23:57:29.587Z,2.70
2023-05-08T23:59:56.191Z,3.22
